Time;durP1;ratioP1;P1;durP2;ratioP2;P2;SDS_P1;SDS_P2;PMS_P1;PMS_P2;Temp;Humidity;BMP_temperature;BMP_pressure;BME280_temperature;BME280_humidity;BME280_pressure;Samples;Min_cycle;Max_cycle;Signal;HPM_P1;HPM_P2
2024/01/28 00:00:47;;;;;;;6.30;4.10;;;;;;;2.05;93.54;101525.90;217116;1263;139778;-68
2024/01/28 00:06:11;;;;;;;11.60;4.90;;;;;;;2.07;93.51;101530.50;217517;1263;222557;-68
2024/01/28 00:11:16;;;;;;;16.50;5.10;;;;;;;2.09;93.36;101531.53;217200;1264;140152;-74
2024/01/28 00:16:20;;;;;;;6.80;3.90;;;;;;;2.11;93.65;101532.04;217035;1259;141330;-68
2024/01/28 00:21:25;;;;;;;5.50;3.60;;;;;;;2.12;93.65;101534.05;218086;1259;140813;-73
2024/01/28 00:26:29;;;;;;;20.60;6.10;;;;;;;2.13;93.80;101534.89;216937;1259;139580;-71
2024/01/28 00:31:34;;;;;;;12.60;5.30;;;;;;;2.15;93.54;101540.66;217437;1259;140615;-70
2024/01/28 00:36:39;;;;;;;6.70;2.80;;;;;;;2.17;93.68;101551.48;216848;1260;140399;-68
2024/01/28 00:41:43;;;;;;;9.10;6.60;;;;;;;2.18;93.87;101557.70;218972;1259;141267;-70
2024/01/28 00:46:47;;;;;;;12.10;4.50;;;;;;;2.21;94.11;101559.51;217828;1259;139920;-70
2024/01/28 00:51:51;;;;;;;7.70;3.70;;;;;;;2.25;93.94;101571.64;218031;1260;140422;-69
2024/01/28 00:56:56;;;;;;;10.00;4.80;;;;;;;2.29;94.03;101572.88;217695;1259;140236;-70
2024/01/28 01:02:01;;;;;;;8.10;3.50;;;;;;;2.32;93.80;101584.91;218032;1263;141452;-73
2024/01/28 01:07:06;;;;;;;16.50;6.70;;;;;;;2.34;94.10;101581.39;216764;1259;139671;-68
2024/01/28 01:12:25;;;;;;;8.80;5.20;;;;;;;2.35;94.14;101581.84;217794;1262;139583;-67
2024/01/28 01:17:29;;;;;;;18.90;7.20;;;;;;;2.33;93.87;101585.46;216727;1259;140120;-68
2024/01/28 01:22:33;;;;;;;13.40;6.70;;;;;;;2.32;94.08;101584.33;217176;1260;140426;-67
2024/01/28 01:27:38;;;;;;;7.80;4.90;;;;;;;2.34;94.16;101584.02;217681;1259;140448;-68
2024/01/28 01:32:43;;;;;;;5.30;3.70;;;;;;;2.35;94.03;101588.30;216457;1260;140615;-69
2024/01/28 01:37:48;;;;;;;5.20;3.80;;;;;;;2.35;94.13;101591.07;216632;1259;140078;-70
2024/01/28 01:42:53;;;;;;;12.60;3.60;;;;;;;2.36;94.26;101591.88;216829;1262;140270;-67
2024/01/28 01:47:58;;;;;;;12.00;5.60;;;;;;;2.35;94.43;101589.15;216707;1263;141292;-68
2024/01/28 01:53:04;;;;;;;5.30;3.60;;;;;;;2.37;94.75;101586.94;217825;1260;140910;-67
2024/01/28 01:58:09;;;;;;;16.70;9.00;;;;;;;2.37;94.67;101580.63;216781;1259;139693;-70
2024/01/28 02:03:13;;;;;;;21.70;10.00;;;;;;;2.35;94.55;101580.40;216752;1262;140376;-69
2024/01/28 02:08:18;;;;;;;17.40;9.00;;;;;;;2.36;94.84;101575.23;218028;1262;140282;-69
2024/01/28 02:13:22;;;;;;;8.10;4.80;;;;;;;2.38;94.89;101577.05;217121;1262;140074;-70
2024/01/28 02:18:26;;;;;;;11.00;5.60;;;;;;;2.39;94.91;101576.80;216819;1260;139934;-68
2024/01/28 02:23:32;;;;;;;7.30;5.30;;;;;;;2.38;94.88;101577.69;216829;1262;140227;-66
2024/01/28 02:28:38;;;;;;;4.50;3.40;;;;;;;2.38;95.23;101579.13;218853;1260;140870;-68
2024/01/28 02:33:43;;;;;;;9.90;2.40;;;;;;;2.40;95.03;101585.45;218693;1260;139976;-67
2024/01/28 02:38:47;;;;;;;6.10;4.80;;;;;;;2.39;94.88;101580.24;219632;1257;140610;-67
2024/01/28 02:43:55;;;;;;;14.40;8.40;;;;;;;2.43;95.04;101585.88;219456;1261;141441;-68
2024/01/28 02:49:00;;;;;;;16.90;8.40;;;;;;;2.47;94.95;101592.67;217530;1262;140949;-66
2024/01/28 02:54:05;;;;;;;19.20;10.30;;;;;;;2.51;95.06;101598.25;217721;1260;142087;-67
2024/01/28 02:59:10;;;;;;;17.50;10.20;;;;;;;2.53;95.18;101605.09;216617;1263;140710;-67
2024/01/28 03:04:15;;;;;;;14.10;5.40;;;;;;;2.51;95.00;101600.35;216474;1263;140150;-68
2024/01/28 03:09:21;;;;;;;16.90;7.20;;;;;;;2.50;95.19;101605.20;216429;1264;140679;-66
2024/01/28 03:14:26;;;;;;;18.80;10.30;;;;;;;2.51;95.29;101606.39;217693;1259;141860;-67
2024/01/28 03:19:30;;;;;;;13.40;10.20;;;;;;;2.52;95.45;101615.95;216568;1264;141114;-67
2024/01/28 03:24:36;;;;;;;25.10;12.90;;;;;;;2.52;95.48;101624.85;216542;1262;140089;-66
2024/01/28 03:29:41;;;;;;;30.70;11.20;;;;;;;2.52;95.44;101632.55;216680;1263;140520;-67
2024/01/28 03:34:46;;;;;;;10.10;5.50;;;;;;;2.51;95.43;101637.04;216798;1263;140888;-67
2024/01/28 03:40:05;;;;;;;8.20;5.20;;;;;;;2.50;95.39;101634.91;217827;1263;141086;-70
2024/01/28 03:45:13;;;;;;;21.30;12.20;;;;;;;2.50;95.32;101642.30;216631;1263;140513;-71
2024/01/28 03:50:21;;;;;;;19.60;10.60;;;;;;;2.52;95.59;101653.28;216877;1263;140058;-71
2024/01/28 03:55:26;;;;;;;11.90;7.10;;;;;;;2.55;95.80;101653.60;217236;1260;141065;-68
2024/01/28 04:00:30;;;;;;;8.40;6.50;;;;;;;2.55;95.61;101657.98;216728;1260;140607;-72
2024/01/28 04:05:35;;;;;;;10.90;6.70;;;;;;;2.56;95.86;101658.92;218494;1260;141162;-69
2024/01/28 04:10:39;;;;;;;15.90;10.30;;;;;;;2.58;96.07;101659.81;216952;1258;139920;-67
2024/01/28 04:15:44;;;;;;;8.50;6.00;;;;;;;2.58;95.86;101660.48;218913;1260;141094;-70
2024/01/28 04:20:48;;;;;;;12.00;5.70;;;;;;;2.59;95.91;101662.36;217174;1261;141537;-68
2024/01/28 04:25:53;;;;;;;6.50;3.60;;;;;;;2.59;95.94;101665.11;219385;1260;140962;-70
2024/01/28 04:31:01;;;;;;;6.00;3.60;;;;;;;2.59;95.70;101670.38;219321;1260;140215;-69
2024/01/28 04:36:05;;;;;;;9.50;3.80;;;;;;;2.60;95.69;101675.79;218173;1257;140067;-70
2024/01/28 04:41:10;;;;;;;10.10;4.70;;;;;;;2.59;95.76;101677.25;216750;1260;140758;-69
2024/01/28 04:46:16;;;;;;;8.30;5.40;;;;;;;2.61;95.89;101682.02;217887;1259;140275;-68
2024/01/28 04:51:21;;;;;;;17.00;8.40;;;;;;;2.64;96.15;101686.44;216850;1263;139858;-68
2024/01/28 04:56:25;;;;;;;19.50;11.40;;;;;;;2.64;96.08;101687.69;217725;1261;744236;-69
2024/01/28 05:01:30;;;;;;;20.80;11.30;;;;;;;2.64;96.27;101683.80;216800;1261;140020;-69
2024/01/28 05:06:36;;;;;;;21.50;11.40;;;;;;;2.64;96.04;101685.94;216705;1259;141015;-68
2024/01/28 05:11:40;;;;;;;23.50;12.30;;;;;;;2.65;96.12;101698.47;217477;1263;141812;-70
2024/01/28 05:16:47;;;;;;;10.70;8.10;;;;;;;2.65;96.04;101705.37;218032;1260;140582;-69
2024/01/28 05:21:52;;;;;;;7.00;5.30;;;;;;;2.64;96.15;101709.66;217193;1258;142152;-70
2024/01/28 05:26:56;;;;;;;11.80;5.00;;;;;;;2.64;96.31;101711.54;216593;1261;141284;-68
2024/01/28 05:32:02;;;;;;;18.40;6.50;;;;;;;2.65;96.29;101714.32;217814;1263;142287;-69
2024/01/28 05:37:15;;;;;;;12.80;6.90;;;;;;;2.65;96.25;101724.49;216700;1261;139903;-68
2024/01/28 05:42:20;;;;;;;17.20;11.50;;;;;;;2.65;96.27;101721.97;216487;1261;139802;-69
2024/01/28 05:47:28;;;;;;;36.90;19.90;;;;;;;2.67;96.64;101728.16;216876;1262;140074;-68
2024/01/28 05:52:33;;;;;;;57.20;28.10;;;;;;;2.67;96.56;101723.05;216981;1257;140325;-68
2024/01/28 05:57:37;;;;;;;53.60;27.90;;;;;;;2.68;96.73;101725.09;218070;1258;140292;-70
2024/01/28 06:02:43;;;;;;;77.70;38.10;;;;;;;2.68;96.52;101723.48;216954;1260;141025;-68
2024/01/28 06:07:47;;;;;;;49.30;24.10;;;;;;;2.67;96.38;101729.92;218385;1257;140651;-70
2024/01/28 06:12:52;;;;;;;27.80;15.00;;;;;;;2.67;96.51;101728.54;217354;1257;140068;-70
2024/01/28 06:17:57;;;;;;;30.20;16.00;;;;;;;2.68;96.66;101730.16;216689;1257;141055;-70
2024/01/28 06:23:05;;;;;;;36.80;18.50;;;;;;;2.70;96.77;101739.48;217657;1257;142071;-70
2024/01/28 06:28:10;;;;;;;;;;;;;;;2.72;96.74;101759.11;219824;1257;140283;-70
2024/01/28 06:33:16;;;;;;;35.70;18.10;;;;;;;2.72;96.55;101767.23;218282;1257;126433;-72
2024/01/28 06:38:20;;;;;;;34.50;19.20;;;;;;;2.74;96.72;101768.48;216620;1257;140596;-72
2024/01/28 06:43:25;;;;;;;24.10;12.60;;;;;;;2.75;96.48;101766.45;217506;1257;140338;-72
2024/01/28 06:48:31;;;;;;;20.00;7.80;;;;;;;2.75;96.61;101766.91;217640;1257;141816;-72
2024/01/28 06:53:36;;;;;;;11.30;7.70;;;;;;;2.80;96.59;101763.52;216650;1263;142017;-73
2024/01/28 06:58:42;;;;;;;12.50;6.40;;;;;;;2.83;96.68;101771.10;216522;1263;140948;-71
2024/01/28 07:03:46;;;;;;;13.70;5.90;;;;;;;2.87;96.59;101775.85;216999;1257;140257;-70
2024/01/28 07:08:51;;;;;;;16.60;8.50;;;;;;;2.90;96.65;101778.55;216697;1262;140745;-71
2024/01/28 07:13:55;;;;;;;19.90;7.50;;;;;;;2.94;96.79;101782.14;216284;1263;140882;-70
2024/01/28 07:19:00;;;;;;;15.10;8.60;;;;;;;2.97;97.07;101782.88;217085;1259;140703;-70
2024/01/28 07:24:06;;;;;;;16.00;8.50;;;;;;;3.01;96.93;101779.55;216468;1260;140744;-68
2024/01/28 07:29:12;;;;;;;32.80;17.90;;;;;;;3.06;97.13;101785.17;216972;1259;141826;-69
2024/01/28 07:34:19;;;;;;;19.00;10.20;;;;;;;3.12;97.09;101793.57;217644;1258;141550;-69
2024/01/28 07:39:26;;;;;;;20.10;11.80;;;;;;;3.19;97.13;101804.15;217772;1259;140073;-69
2024/01/28 07:44:30;;;;;;;24.60;11.60;;;;;;;3.24;97.16;101811.77;217259;1259;141145;-69
2024/01/28 07:49:34;;;;;;;21.80;8.60;;;;;;;3.31;97.22;101809.73;216552;1260;140115;-70
2024/01/28 07:54:40;;;;;;;15.30;7.70;;;;;;;3.38;97.08;101804.17;217242;1258;140116;-70
2024/01/28 07:59:44;;;;;;;15.30;8.30;;;;;;;3.46;97.14;101812.61;216676;1262;139902;-69
2024/01/28 08:05:40;;;;;;;27.40;7.50;;;;;;;3.52;97.06;101817.70;219602;1258;140249;-70
2024/01/28 08:10:44;;;;;;;10.70;6.80;;;;;;;3.62;97.18;101820.13;217001;1260;151662;-72
2024/01/28 08:15:48;;;;;;;13.90;6.20;;;;;;;3.73;97.15;101822.41;216640;1262;139794;-73
2024/01/28 08:20:53;;;;;;;8.80;6.00;;;;;;;3.83;97.08;101818.18;216463;1263;142696;-73
2024/01/28 08:25:58;;;;;;;15.80;5.20;;;;;;;3.96;96.97;101817.66;216401;1262;139792;-72
2024/01/28 08:31:02;;;;;;;9.40;5.90;;;;;;;4.09;96.98;101809.08;216496;1260;139799;-71
2024/01/28 08:36:06;;;;;;;11.70;5.50;;;;;;;4.23;96.78;101817.83;216430;1263;139711;-71
2024/01/28 08:41:10;;;;;;;11.20;3.90;;;;;;;4.48;97.45;101826.02;216423;1260;140512;-70
2024/01/28 08:46:14;;;;;;;12.80;5.00;;;;;;;4.70;97.31;101829.24;216476;1258;139904;-71
2024/01/28 08:51:19;;;;;;;18.50;9.00;;;;;;;4.81;96.68;101831.56;216515;1260;139887;-72
2024/01/28 08:56:23;;;;;;;10.40;5.20;;;;;;;4.87;96.31;101839.38;216543;1260;140863;-71
2024/01/28 09:01:28;;;;;;;10.70;6.00;;;;;;;4.84;95.83;101839.38;216433;1263;140725;-73
2024/01/28 09:06:32;;;;;;;19.30;6.90;;;;;;;4.80;95.69;101842.20;216295;1259;140669;-70
2024/01/28 09:11:36;;;;;;;17.20;8.30;;;;;;;4.76;95.75;101843.95;216608;1259;142323;-71
2024/01/28 09:16:41;;;;;;;13.10;8.60;;;;;;;4.73;95.47;101844.61;216859;1259;140700;-71
2024/01/28 09:21:45;;;;;;;19.40;8.60;;;;;;;4.70;95.53;101851.70;216388;1257;140122;-70
2024/01/28 09:26:49;;;;;;;21.80;10.90;;;;;;;4.71;95.79;101858.02;216515;1257;142203;-70
2024/01/28 09:31:56;;;;;;;13.80;9.40;;;;;;;4.74;95.67;101854.88;217008;1262;141205;-71
2024/01/28 09:37:01;;;;;;;14.30;8.30;;;;;;;4.76;95.78;101853.83;216367;1260;141293;-70
2024/01/28 09:42:23;;;;;;;18.70;10.20;;;;;;;4.80;95.24;101857.88;216587;1259;140957;-72
2024/01/28 09:47:32;;;;;;;14.60;9.10;;;;;;;4.79;95.23;101851.83;216345;1259;140931;-71
2024/01/28 09:52:37;;;;;;;16.50;9.00;;;;;;;4.77;95.14;101858.00;216608;1261;141341;-71
2024/01/28 09:57:42;;;;;;;13.60;9.50;;;;;;;4.79;95.00;101854.27;216467;1262;140799;-70
2024/01/28 10:02:45;;;;;;;12.20;7.40;;;;;;;4.80;94.98;101862.98;216411;1259;140035;-69
2024/01/28 10:08:02;;;;;;;19.00;10.70;;;;;;;4.79;95.37;101866.65;216404;1260;141187;-70
2024/01/28 10:13:06;;;;;;;21.00;12.00;;;;;;;4.86;95.49;101866.33;216904;1257;141068;-69
2024/01/28 10:18:10;;;;;;;16.20;10.20;;;;;;;4.89;94.89;101862.92;216547;1257;140942;-70
2024/01/28 10:23:14;;;;;;;28.50;13.50;;;;;;;4.89;94.86;101864.17;216478;1258;140080;-69
2024/01/28 10:28:18;;;;;;;24.80;13.80;;;;;;;4.89;94.79;101870.71;216846;1262;142072;-69
2024/01/28 10:33:21;;;;;;;22.00;10.00;;;;;;;4.85;94.51;101874.17;216548;1257;140411;-71
2024/01/28 10:38:27;;;;;;;16.70;10.40;;;;;;;4.82;94.63;101873.73;216594;1258;141014;-70
2024/01/28 10:43:36;;;;;;;19.60;11.70;;;;;;;4.85;94.81;101873.11;216469;1259;140623;-70
2024/01/28 10:48:45;;;;;;;25.70;11.00;;;;;;;4.93;95.00;101874.55;217182;1257;140114;-71
2024/01/28 10:53:51;;;;;;;20.20;12.70;;;;;;;5.01;95.00;101868.85;216902;1259;140392;-70
2024/01/28 10:58:57;;;;;;;18.90;11.80;;;;;;;5.10;94.85;101863.82;216883;1259;141461;-71
2024/01/28 11:04:03;;;;;;;25.20;11.50;;;;;;;5.14;94.84;101859.93;216620;1259;140570;-70
2024/01/28 11:09:09;;;;;;;20.20;11.70;;;;;;;5.15;94.42;101861.54;216555;1262;140015;-70
2024/01/28 11:14:13;;;;;;;18.70;10.80;;;;;;;5.12;94.38;101866.81;216373;1263;140556;-70
2024/01/28 11:19:17;;;;;;;19.40;12.20;;;;;;;5.09;94.16;101872.19;216661;1260;140261;-69
2024/01/28 11:24:22;;;;;;;21.70;12.90;;;;;;;5.11;94.74;101870.90;216616;1259;141073;-70
2024/01/28 11:29:33;;;;;;;25.30;14.30;;;;;;;5.16;94.79;101873.47;216357;1259;140041;-70
2024/01/28 11:34:42;;;;;;;20.10;10.80;;;;;;;5.17;94.28;101876.85;216255;1262;140107;-70
2024/01/28 11:39:48;;;;;;;20.60;12.70;;;;;;;5.12;94.17;101876.30;216602;1259;140284;-71
2024/01/28 11:44:53;;;;;;;22.10;12.20;;;;;;;5.14;93.88;101877.71;216313;1262;140807;-71
2024/01/28 11:50:01;;;;;;;19.60;12.50;;;;;;;5.14;94.11;101872.28;216447;1259;141909;-70
2024/01/28 11:55:11;;;;;;;19.00;10.90;;;;;;;5.12;93.70;101872.09;216268;1259;140633;-71
2024/01/28 12:00:16;;;;;;;17.00;10.80;;;;;;;5.08;93.62;101872.95;216402;1259;142701;-70
2024/01/28 12:05:21;;;;;;;17.10;11.10;;;;;;;5.06;93.92;101875.20;216818;1258;140752;-70
2024/01/28 12:10:26;;;;;;;18.80;10.80;;;;;;;5.06;93.78;101875.42;216692;1259;140808;-70
2024/01/28 12:15:30;;;;;;;16.10;10.70;;;;;;;5.00;93.84;101872.98;216521;1262;141191;-70
2024/01/28 12:20:35;;;;;;;24.70;12.10;;;;;;;5.00;93.77;101870.69;216358;1262;141371;-70
2024/01/28 12:25:40;;;;;;;30.10;12.50;;;;;;;5.03;94.11;101875.38;216550;1260;140181;-70
2024/01/28 12:30:46;;;;;;;23.60;12.60;;;;;;;5.09;94.36;101879.59;216319;1262;140695;-70
2024/01/28 12:35:51;;;;;;;25.00;12.20;;;;;;;5.11;94.09;101878.72;216381;1262;140542;-70
2024/01/28 12:40:56;;;;;;;13.80;9.60;;;;;;;5.12;94.25;101880.19;216364;1259;140677;-70
2024/01/28 12:46:01;;;;;;;26.30;12.40;;;;;;;5.09;93.80;101875.66;216550;1261;141177;-70
2024/01/28 12:51:10;;;;;;;21.80;11.70;;;;;;;5.13;94.17;101871.15;217032;1259;140683;-70
2024/01/28 12:56:14;;;;;;;35.00;15.50;;;;;;;5.16;94.06;101872.22;216557;1259;140363;-70
2024/01/28 13:01:19;;;;;;;21.60;11.30;;;;;;;5.17;93.69;101866.17;216512;1259;140006;-68
2024/01/28 13:06:23;;;;;;;28.00;14.50;;;;;;;5.15;94.09;101871.10;216812;1258;142174;-70
2024/01/28 13:11:30;;;;;;;40.80;18.60;;;;;;;5.15;94.02;101875.70;216339;1259;141352;-70
2024/01/28 13:16:36;;;;;;;47.10;18.10;;;;;;;5.16;93.86;101878.23;216476;1259;140402;-70
2024/01/28 13:21:41;;;;;;;25.50;13.20;;;;;;;5.17;94.00;101878.34;216415;1262;140865;-72
2024/01/28 13:26:45;;;;;;;29.90;13.70;;;;;;;5.17;94.09;101874.58;216674;1260;141426;-70
2024/01/28 13:31:50;;;;;;;23.10;12.90;;;;;;;5.18;94.01;101864.51;216314;1259;140274;-71
2024/01/28 13:36:54;;;;;;;28.10;14.20;;;;;;;5.14;93.55;101863.05;216691;1259;140285;-70
2024/01/28 13:41:59;;;;;;;24.10;13.40;;;;;;;5.10;94.16;101857.30;218336;1259;140425;-69
2024/01/28 13:47:04;;;;;;;28.40;13.60;;;;;;;5.13;94.05;101854.03;216283;1260;141006;-68
2024/01/28 13:52:07;;;;;;;21.60;15.00;;;;;;;5.17;94.10;101853.48;219335;1259;140507;-69
2024/01/28 13:57:12;;;;;;;26.90;14.00;;;;;;;5.22;94.27;101846.02;218728;1259;140877;-76
2024/01/28 14:02:16;;;;;;;27.30;12.70;;;;;;;5.27;93.95;101847.64;218800;1259;140183;-75
2024/01/28 14:07:20;;;;;;;27.70;15.00;;;;;;;5.27;94.02;101854.41;217558;1259;141153;-70
2024/01/28 14:12:25;;;;;;;27.00;11.50;;;;;;;5.28;93.97;101861.86;219334;1259;141073;-70
2024/01/28 14:17:35;;;;;;;20.00;12.60;;;;;;;5.26;93.39;101865.57;217554;1259;140199;-71
2024/01/28 14:22:40;;;;;;;20.60;14.10;;;;;;;5.22;93.62;101865.30;216743;1259;209085;-69
2024/01/28 14:27:45;;;;;;;20.30;13.00;;;;;;;5.10;93.07;101879.14;218646;1259;140123;-70
2024/01/28 14:32:48;;;;;;;22.40;13.40;;;;;;;5.01;93.41;101879.98;217900;1259;139780;-70
2024/01/28 14:37:52;;;;;;;19.40;12.40;;;;;;;4.99;93.61;101890.76;216687;1259;140698;-70
2024/01/28 14:42:57;;;;;;;24.70;13.70;;;;;;;4.98;93.50;101892.93;217407;1259;139969;-71
2024/01/28 14:48:01;;;;;;;23.60;13.80;;;;;;;4.92;93.36;101897.08;217227;1262;140907;-71
2024/01/28 14:53:05;;;;;;;25.50;15.90;;;;;;;4.84;93.39;101896.06;216814;1262;140027;-70
2024/01/28 14:58:10;;;;;;;23.00;14.50;;;;;;;4.79;93.66;101892.65;217638;1257;141197;-75
2024/01/28 15:03:15;;;;;;;29.40;15.40;;;;;;;4.74;93.78;101890.86;216953;1257;141690;-71
2024/01/28 15:08:19;;;;;;;24.70;14.80;;;;;;;4.72;93.85;101888.56;216930;1257;139728;-70
2024/01/28 15:13:24;;;;;;;30.40;17.20;;;;;;;4.66;93.84;101883.81;216773;1262;139767;-70
2024/01/28 15:18:29;;;;;;;27.40;18.50;;;;;;;4.62;94.10;101887.91;216886;1260;141315;-70
2024/01/28 15:23:35;;;;;;;23.00;15.80;;;;;;;4.60;93.96;101889.16;216680;1259;140427;-70
2024/01/28 15:28:39;;;;;;;18.40;12.50;;;;;;;4.54;93.84;101890.23;216808;1259;141427;-71
2024/01/28 15:33:43;;;;;;;20.70;10.60;;;;;;;4.46;93.45;101892.63;217033;1260;140692;-74
2024/01/28 15:38:48;;;;;;;19.50;12.20;;;;;;;4.38;93.42;101889.97;216741;1259;142983;-70
2024/01/28 15:43:51;;;;;;;19.10;13.50;;;;;;;4.38;93.37;101892.94;216844;1262;139986;-71
2024/01/28 15:48:57;;;;;;;23.20;14.00;;;;;;;4.37;93.79;101891.44;216962;1259;140063;-75
2024/01/28 15:54:02;;;;;;;25.80;13.10;;;;;;;4.36;93.67;101895.78;216692;1262;207479;-74
2024/01/28 15:59:06;;;;;;;21.80;11.30;;;;;;;4.30;93.32;101895.13;216479;1262;139935;-74
2024/01/28 16:04:10;;;;;;;18.40;11.20;;;;;;;4.24;93.20;101887.81;216860;1262;141671;-72
2024/01/28 16:09:15;;;;;;;16.90;11.20;;;;;;;4.22;93.45;101882.15;216741;1263;139873;-74
2024/01/28 16:14:19;;;;;;;15.50;9.70;;;;;;;4.19;93.34;101882.26;216710;1264;140071;-75
2024/01/28 16:19:23;;;;;;;18.40;8.60;;;;;;;4.08;92.80;101886.56;216516;1259;140460;-70
2024/01/28 16:24:27;;;;;;;17.50;11.30;;;;;;;3.99;92.76;101890.76;216703;1259;140645;-71
2024/01/28 16:29:34;;;;;;;15.70;10.00;;;;;;;3.99;93.50;101887.29;216836;1259;140112;-70
2024/01/28 16:34:38;;;;;;;16.60;9.90;;;;;;;3.99;93.29;101889.92;216605;1263;140300;-71
2024/01/28 16:39:42;;;;;;;16.80;10.80;;;;;;;3.96;93.37;101891.02;216873;1259;140753;-75
2024/01/28 16:44:48;;;;;;;9.90;7.10;;;;;;;3.95;93.26;101894.29;216363;1262;140502;-70
2024/01/28 16:49:53;;;;;;;13.80;9.60;;;;;;;3.93;93.02;101895.52;216757;1260;140230;-72
2024/01/28 16:54:57;;;;;;;12.00;8.90;;;;;;;3.93;93.10;101904.20;216425;1260;370914;-73
2024/01/28 17:00:03;;;;;;;14.50;7.60;;;;;;;3.92;92.99;101905.69;218800;1260;140526;-74
2024/01/28 17:05:08;;;;;;;12.20;7.20;;;;;;;3.85;92.81;101912.65;216856;1260;141388;-70
2024/01/28 17:10:13;;;;;;;11.10;7.30;;;;;;;3.85;93.17;101910.16;216462;1262;140279;-69
2024/01/28 17:15:18;;;;;;;17.70;9.80;;;;;;;3.79;92.66;101901.25;217514;1260;141530;-70
2024/01/28 17:20:24;;;;;;;15.10;10.00;;;;;;;3.73;92.88;101899.30;216375;1260;141360;-69
2024/01/28 17:25:29;;;;;;;13.60;8.80;;;;;;;3.71;93.20;101905.98;218145;1262;141642;-70
2024/01/28 17:30:33;;;;;;;13.30;7.80;;;;;;;3.69;93.24;101911.59;217716;1262;140288;-70
2024/01/28 17:35:38;;;;;;;13.30;7.80;;;;;;;3.68;93.31;101916.29;216404;1259;140122;-71
2024/01/28 17:40:42;;;;;;;11.20;7.90;;;;;;;3.66;93.23;101918.16;217035;1259;140254;-70
2024/01/28 17:45:47;;;;;;;13.70;8.60;;;;;;;3.65;93.38;101915.80;216438;1259;142105;-70
2024/01/28 17:50:53;;;;;;;13.30;9.10;;;;;;;3.64;93.12;101912.78;216512;1262;140298;-70
2024/01/28 17:55:58;;;;;;;18.50;9.20;;;;;;;3.62;93.14;101910.47;216305;1260;141736;-70
2024/01/28 18:01:04;;;;;;;13.10;9.60;;;;;;;3.60;93.18;101909.46;216344;1260;139824;-69
2024/01/28 18:06:09;;;;;;;15.40;8.40;;;;;;;3.59;93.17;101905.69;219486;1259;141035;-70
2024/01/28 18:11:15;;;;;;;19.30;8.50;;;;;;;3.58;93.04;101901.86;219594;1259;141093;-71
2024/01/28 18:16:28;;;;;;;16.20;10.60;;;;;;;3.60;93.08;101906.60;217672;1259;140766;-70
2024/01/28 18:21:40;;;;;;;13.90;9.20;;;;;;;3.57;92.98;101909.91;218358;1259;141023;-70
2024/01/28 18:26:45;;;;;;;11.80;8.10;;;;;;;3.57;92.93;101903.77;218093;1259;140875;-69
2024/01/28 18:31:50;;;;;;;12.00;7.60;;;;;;;3.55;92.96;101905.52;218884;1259;141975;-69
2024/01/28 18:36:54;;;;;;;13.30;8.70;;;;;;;3.42;92.16;101906.80;216457;1260;139988;-69
2024/01/28 18:41:59;;;;;;;12.60;8.90;;;;;;;3.31;92.27;101914.28;216418;1260;139813;-69
2024/01/28 18:47:05;;;;;;;15.60;10.50;;;;;;;3.22;92.36;101914.08;216364;1260;140325;-69
2024/01/28 18:52:10;;;;;;;26.00;14.50;;;;;;;3.13;92.44;101911.30;216398;1259;140278;-70
2024/01/28 18:57:15;;;;;;;32.60;18.70;;;;;;;3.10;92.83;101911.58;216458;1263;140025;-69
2024/01/28 19:02:19;;;;;;;40.40;19.60;;;;;;;3.13;93.23;101909.73;216402;1259;140063;-68
2024/01/28 19:07:24;;;;;;;17.30;10.80;;;;;;;3.19;93.29;101914.52;216198;1259;140676;-69
2024/01/28 19:12:30;;;;;;;20.20;11.30;;;;;;;3.18;93.21;101904.04;216346;1260;140887;-69
2024/01/28 19:17:34;;;;;;;26.60;15.30;;;;;;;3.10;92.82;101907.36;216195;1263;141200;-70
2024/01/28 19:22:40;;;;;;;27.60;16.80;;;;;;;3.08;93.26;101912.24;216268;1259;140032;-70
2024/01/28 19:27:47;;;;;;;38.00;24.30;;;;;;;3.07;93.15;101908.01;216328;1259;141148;-69
2024/01/28 19:32:52;;;;;;;32.20;18.60;;;;;;;3.04;93.19;101910.34;217778;1259;140218;-69
2024/01/28 19:37:58;;;;;;;23.00;12.90;;;;;;;3.05;93.18;101903.38;217398;1263;140588;-70
2024/01/28 19:43:02;;;;;;;24.30;13.90;;;;;;;3.01;93.05;101903.39;216430;1260;140293;-68
2024/01/28 19:48:08;;;;;;;30.70;16.70;;;;;;;2.99;93.27;101917.44;216232;1264;142581;-66
2024/01/28 19:53:13;;;;;;;28.80;15.80;;;;;;;2.96;93.12;101909.94;217388;1260;141024;-68
2024/01/28 19:58:18;;;;;;;23.30;14.10;;;;;;;2.95;93.29;101905.15;216655;1262;232630;-69
2024/01/28 20:03:28;;;;;;;19.10;13.10;;;;;;;2.91;93.09;101904.39;216159;1260;140045;-69
2024/01/28 20:08:33;;;;;;;29.40;18.40;;;;;;;2.82;92.65;101897.99;218206;1259;141722;-68
2024/01/28 20:13:37;;;;;;;31.00;17.10;;;;;;;2.72;92.93;101893.48;216756;1260;140432;-68
2024/01/28 20:18:41;;;;;;;32.00;18.20;;;;;;;2.67;93.07;101883.35;216760;1262;140045;-70
2024/01/28 20:23:45;;;;;;;33.50;20.10;;;;;;;2.65;93.24;101879.98;216511;1263;139937;-69
2024/01/28 20:28:51;;;;;;;41.90;21.70;;;;;;;2.58;93.00;101879.21;216905;1262;140169;-68
2024/01/28 20:33:55;;;;;;;36.70;20.90;;;;;;;2.47;93.01;101874.14;217728;1259;141589;-69
2024/01/28 20:39:01;;;;;;;38.80;22.20;;;;;;;2.43;92.96;101881.00;219451;1261;140934;-69
2024/01/28 20:44:05;;;;;;;35.70;21.90;;;;;;;2.41;93.18;101881.02;216586;1263;141375;-68
2024/01/28 20:49:10;;;;;;;38.80;20.70;;;;;;;2.33;92.77;101879.20;216239;1262;140155;-69
2024/01/28 20:54:15;;;;;;;35.30;20.70;;;;;;;2.23;92.38;101883.23;216749;1259;139987;-67
2024/01/28 20:59:19;;;;;;;32.20;19.00;;;;;;;2.12;92.29;101889.45;216369;1263;140414;-67
2024/01/28 21:04:22;;;;;;;46.20;25.80;;;;;;;1.95;91.94;101893.59;216167;1263;140739;-67
2024/01/28 21:09:29;;;;;;;46.50;23.70;;;;;;;1.78;91.98;101889.05;216164;1261;140679;-68
2024/01/28 21:14:34;;;;;;;37.60;20.40;;;;;;;1.62;91.69;101893.30;216406;1259;140496;-67
2024/01/28 21:19:38;;;;;;;46.20;25.60;;;;;;;1.43;91.55;101895.23;216525;1263;140130;-68
2024/01/28 21:24:43;;;;;;;46.70;25.40;;;;;;;1.36;92.17;101899.15;216462;1263;141240;-67
2024/01/28 21:29:49;;;;;;;34.80;22.10;;;;;;;1.27;92.04;101897.70;216462;1263;140758;-68
2024/01/28 21:34:53;;;;;;;52.40;30.60;;;;;;;1.12;91.25;101893.39;216477;1262;140397;-68
2024/01/28 21:39:57;;;;;;;43.70;26.50;;;;;;;0.94;90.96;101898.80;216181;1259;140646;-68
2024/01/28 21:45:06;;;;;;;36.70;21.10;;;;;;;0.84;91.56;101892.75;216325;1263;140664;-68
2024/01/28 21:50:14;;;;;;;42.50;24.20;;;;;;;0.76;91.32;101898.06;216556;1258;140435;-67
2024/01/28 21:55:19;;;;;;;38.70;22.70;;;;;;;0.61;91.15;101895.40;219515;1259;140815;-68
2024/01/28 22:00:23;;;;;;;46.10;25.20;;;;;;;0.43;90.86;101896.95;219531;1261;140634;-68
2024/01/28 22:05:27;;;;;;;42.60;24.70;;;;;;;0.31;91.34;101893.13;219438;1260;140552;-68
2024/01/28 22:10:30;;;;;;;43.90;23.70;;;;;;;0.21;90.91;101885.31;219365;1261;142349;-68
2024/01/28 22:15:34;;;;;;;54.50;25.20;;;;;;;0.07;90.76;101894.09;216524;1263;140906;-68
2024/01/28 22:20:38;;;;;;;61.00;29.30;;;;;;;-0.09;90.70;101904.71;216340;1263;141287;-68
2024/01/28 22:25:42;;;;;;;48.30;24.90;;;;;;;-0.15;91.66;101910.92;216262;1264;142340;-68
2024/01/28 22:30:46;;;;;;;46.10;22.80;;;;;;;-0.20;91.70;101890.35;219710;1263;141979;-68
2024/01/28 22:35:51;;;;;;;54.80;30.00;;;;;;;-0.24;91.75;101885.71;216552;1263;141220;-67
2024/01/28 22:40:55;;;;;;;47.10;29.10;;;;;;;-0.23;92.08;101883.07;216557;1262;141223;-68
2024/01/28 22:46:00;;;;;;;42.90;24.50;;;;;;;-0.19;92.53;101883.59;216528;1261;141694;-68
2024/01/28 22:51:05;;;;;;;41.00;22.20;;;;;;;-0.15;92.70;101871.77;216193;1262;140577;-67
2024/01/28 22:56:10;;;;;;;43.40;22.50;;;;;;;-0.14;92.53;101867.67;216498;1257;140908;-65